Time;durP1;ratioP1;P1;durP2;ratioP2;P2;SDS_P1;SDS_P2;PMS_P1;PMS_P2;Temp;Humidity;BMP_temperature;BMP_pressure;BME280_temperature;BME280_humidity;BME280_pressure;Samples;Min_cycle;Max_cycle;Signal;HPM_P1;HPM_P2
2021/12/19 00:08:27;;;;;;;;;;;0.50;99.90;;;-0.58;100.00;97092.56;10372797;28;2181;-72
2021/12/19 00:10:13;;;;;;;;;;;0.50;99.90;;;-0.67;100.00;97100.69;10349546;28;1988;-72
2021/12/19 00:15:16;;;;;;;;;;;0.50;99.90;;;-0.88;100.00;97093.34;10365794;28;1870;-72
2021/12/19 00:20:19;;;;;;;;;;;0.30;99.90;;;-1.04;100.00;97098.66;10373827;28;1835;-72
2021/12/19 00:25:42;;;;;;;;;;;0.10;99.90;;;-0.85;100.00;97093.81;10364076;28;1810;-70
2021/12/19 00:30:44;;;;;;;;;;;0.10;99.90;;;-0.93;100.00;97077.19;10355998;28;1914;-72
2021/12/19 00:35:47;;;;;;;;;;;0.10;99.90;;;-0.84;100.00;97065.59;10360810;28;2216;-73
2021/12/19 00:40:50;;;;;;;;;;;0.10;99.90;;;-1.04;100.00;97069.63;10363073;28;1926;-74
2021/12/19 00:45:54;;;;;;;;;;;0.10;99.90;;;-0.86;100.00;97078.16;10373859;28;1830;-71
2021/12/19 00:50:57;;;;;;;;;;;0.10;99.90;;;-0.94;100.00;97086.09;10375290;28;1930;-73
2021/12/19 00:56:00;;;;;;;;;;;0.10;99.90;;;-0.88;100.00;97080.13;10371659;28;1767;-73
2021/12/19 01:01:03;;;;;;;;;;;0.00;99.90;;;-0.96;100.00;97067.75;10370649;28;1993;-72
2021/12/19 01:06:06;;;;;;;;;;;0.00;99.90;;;-1.09;100.00;97070.94;10374180;28;1935;-73
2021/12/19 01:11:09;;;;;;;;;;;-0.10;99.90;;;-0.99;100.00;97062.03;10373814;28;1910;-72
2021/12/19 01:16:12;;;;;;;;;;;0.00;99.90;;;-0.99;100.00;97051.47;10364530;28;1858;-71
2021/12/19 01:21:15;;;;;;;;;;;0.00;99.90;;;-0.83;100.00;97046.09;10367575;28;1890;-72
2021/12/19 01:26:18;;;;;;;;;;;-0.30;99.90;;;-0.79;100.00;97050.06;10365318;28;2214;-73
2021/12/19 01:31:21;;;;;;;;;;;0.10;99.90;;;-0.65;100.00;97051.97;10378002;28;1976;-72
2021/12/19 01:36:24;;;;;;;;;;;0.20;99.90;;;-0.77;100.00;97050.72;10384317;28;2241;-71
2021/12/19 01:41:27;;;;;;;;;;;0.20;99.90;;;-0.71;100.00;97052.66;10379691;28;2396;-73
2021/12/19 01:46:30;;;;;;;;;;;0.30;99.90;;;-0.67;100.00;97056.63;10370974;28;2014;-72
2021/12/19 01:51:33;;;;;;;;;;;0.30;99.90;;;-0.76;100.00;97056.81;10385641;28;1994;-71
2021/12/19 01:56:36;;;;;;;;;;;0.30;99.90;;;-0.99;100.00;97054.91;10391561;28;1970;-72
2021/12/19 02:01:39;;;;;;;;;;;0.10;99.90;;;-1.02;100.00;97054.44;10367069;28;2169;-72
2021/12/19 02:06:42;;;;;;;;;;;0.00;99.90;;;-1.16;100.00;97064.69;10364832;28;1953;-72
2021/12/19 02:11:45;;;;;;;;;;;-0.10;99.90;;;-1.22;100.00;97060.09;10367579;28;2003;-71
2021/12/19 02:16:48;;;;;;;;;;;-0.20;99.90;;;-1.23;100.00;97055.81;10361085;28;1920;-72
2021/12/19 02:21:51;;;;;;;;;;;-0.20;99.90;;;-1.05;100.00;97052.97;10358266;28;1913;-72
2021/12/19 02:26:54;;;;;;;;;;;-0.10;99.90;;;-1.05;100.00;97049.50;10374662;28;1838;-73
2021/12/19 02:31:57;;;;;;;;;;;0.00;99.90;;;-1.00;100.00;97047.19;10357920;28;1987;-73
2021/12/19 02:37:06;;;;;;;;;;;0.00;99.90;;;-0.94;100.00;97035.94;10363034;28;2310;-72
2021/12/19 02:52:50;;;;;;;;;;;0.00;99.90;;;-1.46;100.00;97047.78;10367070;28;2192;-71
2021/12/19 02:57:53;;;;;;;;;;;-0.20;99.90;;;-1.46;100.00;97052.25;10355198;28;2065;-73
2021/12/19 03:02:57;;;;;;;;;;;;;;;-1.54;100.00;97042.50;10371312;28;1866;-72
2021/12/19 03:08:01;;;;;;;;;;;-0.40;99.90;;;-1.24;100.00;97043.59;10386026;28;1956;-73
2021/12/19 03:13:15;;;;;;;;;;;-0.20;99.90;;;-1.11;100.00;97033.34;10383473;28;1933;-73
2021/12/19 03:18:19;;;;;;;;;;;-0.10;99.90;;;-1.25;100.00;97038.50;10376957;28;1843;-72
2021/12/19 03:23:22;;;;;;;;;;;0.00;99.90;;;-1.44;100.00;97029.16;10372794;28;1914;-73
2021/12/19 03:28:26;;;;;;;;;;;-0.20;99.90;;;-1.46;100.00;96999.50;10357677;28;2232;-72
2021/12/19 03:33:28;;;;;;;;;;;-0.30;99.90;;;-1.32;100.00;96990.06;10366575;28;2000;-73
2021/12/19 03:38:33;;;;;;;;;;;-0.30;99.90;;;-1.39;100.00;96982.00;10378659;28;1863;-72
2021/12/19 03:43:36;;;;;;;;;;;-0.30;99.90;;;-1.43;100.00;96999.13;10366190;28;1827;-73
2021/12/19 03:48:39;;;;;;;;;;;-0.30;99.90;;;-1.44;100.00;97002.78;10367344;28;1918;-72
2021/12/19 03:53:41;;;;;;;;;;;-0.40;99.90;;;-1.27;100.00;96991.19;10363630;28;1882;-71
2021/12/19 03:58:44;;;;;;;;;;;-0.30;99.90;;;-1.18;100.00;97003.34;10339110;28;2177;-72
2021/12/19 04:03:47;;;;;;;;;;;-0.10;99.90;;;-1.37;100.00;97001.09;10363183;28;2046;-72
2021/12/19 04:08:51;;;;;;;;;;;-0.10;99.90;;;-1.52;100.00;96979.88;10359712;28;2278;-73
2021/12/19 04:13:54;;;;;;;;;;;-0.30;99.90;;;-1.49;100.00;96974.25;10349218;28;1915;-74
2021/12/19 04:18:57;;;;;;;;;;;-0.40;99.90;;;-1.45;100.00;96974.75;10362375;28;1878;-72
2021/12/19 04:24:00;;;;;;;;;;;-0.40;99.90;;;-1.23;100.00;96966.09;10369254;28;1858;-72
2021/12/19 04:29:03;;;;;;;;;;;-0.20;99.90;;;-1.07;100.00;96962.59;10369493;28;1910;-74
2021/12/19 04:34:13;;;;;;;;;;;0.00;99.90;;;-1.03;100.00;96961.22;10361336;28;1897;-72
2021/12/19 04:39:31;;;;;;;;;;;0.00;99.90;;;-1.03;100.00;96947.22;10358453;28;2018;-73
2021/12/19 04:55:35;;;;;;;;;;;0.00;99.90;;;-1.17;100.00;96941.66;10379365;28;2531;-71
2021/12/19 05:00:46;;;;;;;;;;;-0.10;99.90;;;-1.02;100.00;96935.66;10361765;28;1896;-71
2021/12/19 05:06:00;;;;;;;;;;;0.00;99.90;;;-1.06;100.00;96923.81;10360836;28;1965;-73
2021/12/19 05:16:24;;;;;;;;;;;0.10;99.90;;;-1.11;100.00;96911.97;10374966;28;1882;-72
2021/12/19 05:21:28;;;;;;;;;;;0.00;99.90;;;-1.13;100.00;96913.97;10361144;28;2045;-72
2021/12/19 05:26:32;;;;;;;;;;;0.00;99.90;;;-1.00;100.00;96915.22;10355544;28;2169;-72
2021/12/19 05:31:35;;;;;;;;;;;0.10;99.90;;;-1.04;100.00;96935.84;10353892;28;2032;-71
2021/12/19 05:47:23;;;;;;;;;;;-0.30;99.90;;;-1.45;100.00;96943.09;10361697;28;2011;-71
2021/12/19 05:52:27;;;;;;;;;;;-0.30;99.90;;;-1.41;100.00;96931.22;10362307;28;1918;-72
2021/12/19 05:57:30;;;;;;;;;;;-0.30;99.90;;;-1.17;100.00;96917.09;10362271;28;1866;-73
2021/12/19 06:02:33;;;;;;;;;;;-0.20;99.90;;;-1.15;100.00;96904.56;10368984;28;1848;-72
2021/12/19 06:07:37;;;;;;;;;;;-0.10;99.90;;;-1.01;100.00;96911.75;10365002;28;1887;-74
2021/12/19 06:12:41;;;;;;;;;;;0.00;99.90;;;-0.90;100.00;96910.53;10365709;28;2011;-72
2021/12/19 06:17:45;;;;;;;;;;;0.10;99.90;;;-0.77;100.00;96921.34;10349047;28;2104;-72
2021/12/19 06:22:48;;;;;;;;;;;0.20;99.90;;;-0.81;100.00;96909.50;10357764;28;2228;-73
2021/12/19 06:27:52;;;;;;;;;;;0.30;99.90;;;-0.97;100.00;96904.31;10363124;28;2175;-73
2021/12/19 06:32:55;;;;;;;;;;;0.20;99.90;;;-1.00;100.00;96908.13;10387441;28;2192;-72
2021/12/19 06:37:58;;;;;;;;;;;0.10;99.90;;;-1.14;100.00;96887.75;10392204;28;1878;-72
2021/12/19 06:43:01;;;;;;;;;;;0.50;99.90;;;-1.19;100.00;96908.56;10361446;28;1941;-74
2021/12/19 06:48:04;;;;;;;;;;;0.00;99.90;;;-1.28;100.00;96902.47;10367622;28;1829;-72
2021/12/19 06:53:07;;;;;;;;;;;-0.10;99.90;;;-1.13;100.00;96892.84;10362794;28;1910;-71
2021/12/19 06:58:11;;;;;;;;;;;-0.10;99.90;;;-1.13;100.00;96892.84;10361896;28;1799;-73
2021/12/19 07:03:15;;;;;;;;;;;0.00;99.90;;;-1.25;100.00;96883.69;10361310;28;1925;-72
2021/12/19 07:08:19;;;;;;;;;;;-0.10;99.90;;;-1.35;100.00;96875.13;10404282;28;1505;-73
2021/12/19 07:13:24;;;;;;;;;;;-0.20;99.90;;;-1.33;100.00;96898.72;10407222;28;1498;-73
2021/12/19 07:18:28;;;;;;;;;;;-0.20;99.90;;;-1.26;100.00;96876.75;10405886;28;1881;-72
2021/12/19 07:23:32;;;;;;;;;;;-0.20;99.90;;;-1.23;100.00;96873.75;10370204;28;1974;-72
2021/12/19 07:28:35;;;;;;;;;;;-0.20;99.90;;;-1.25;100.00;96861.75;10352311;28;1906;-72
2021/12/19 07:33:38;;;;;;;;;;;-0.20;99.90;;;-1.04;100.00;96872.50;10359074;28;1835;-73
2021/12/19 07:38:51;;;;;;;;;;;0.00;99.90;;;-1.08;100.00;96884.44;10361529;28;1878;-73
2021/12/19 07:43:54;;;;;;;;;;;-0.10;99.90;;;-1.01;100.00;96874.81;10353748;28;1918;-74
2021/12/19 07:48:58;;;;;;;;;;;0.00;99.90;;;-1.00;100.00;96873.00;10380556;23;1983;-74
2021/12/19 07:54:02;;;;;;;;;;;0.10;99.90;;;-0.90;100.00;96857.72;10366181;28;1856;-74
2021/12/19 07:59:05;;;;;;;;;;;0.10;99.90;;;-1.02;100.00;96856.50;10369209;28;1787;-75
2021/12/19 08:04:08;;;;;;;;;;;0.10;99.90;;;-0.74;100.00;96840.97;10374768;28;1909;-74
2021/12/19 08:09:21;;;;;;;;;;;0.20;99.90;;;-0.64;100.00;96842.34;10374898;28;1914;-75
2021/12/19 08:14:25;;;;;;;;;;;0.30;99.90;;;-0.61;100.00;96834.09;10388233;28;1779;-73
2021/12/19 08:19:28;;;;;;;;;;;0.40;99.90;;;-0.79;100.00;96830.94;10378402;28;1896;-74
2021/12/19 08:24:32;;;;;;;;;;;0.30;99.90;;;-0.63;100.00;96827.38;10373344;28;1870;-73
2021/12/19 08:29:35;;;;;;;;;;;0.40;99.90;;;-0.59;100.00;96818.88;10369706;28;1993;-74
2021/12/19 08:34:38;;;;;;;;;;;0.40;99.90;;;-0.52;100.00;96832.19;10383644;28;1893;-75
2021/12/19 08:39:42;;;;;;;;;;;0.50;99.90;;;-0.64;100.00;96825.69;10371475;28;1879;-73
2021/12/19 08:44:45;;;;;;;;;;;0.40;99.90;;;-0.70;100.00;96827.25;10366265;28;1930;-74
2021/12/19 08:49:49;;;;;;;;;;;0.40;99.90;;;-0.49;100.00;96823.94;10367110;28;2041;-75
2021/12/19 08:54:52;;;;;;;;;;;0.50;99.90;;;-0.51;100.00;96807.44;10369063;28;1944;-76
2021/12/19 08:59:55;;;;;;;;;;;0.50;99.90;;;-0.67;100.00;96805.75;10386186;28;1804;-74
2021/12/19 09:04:59;;;;;;;;;;;0.40;99.90;;;-0.48;100.00;96811.53;10384937;28;1865;-75
2021/12/19 09:10:02;;;;;;;;;;;0.50;99.90;;;-0.19;100.00;96816.91;10380734;28;1914;-74
2021/12/19 09:15:06;;;;;;;;;;;0.70;99.90;;;-0.27;100.00;96801.09;10390311;28;1873;-74
2021/12/19 09:20:09;;;;;;;;;;;0.70;99.90;;;-0.42;100.00;96798.44;10385077;28;1935;-74
2021/12/19 09:25:12;;;;;;;;;;;0.70;99.90;;;-0.17;100.00;96793.75;10381370;28;1888;-74
2021/12/19 09:30:16;;;;;;;;;;;0.70;99.90;;;-0.02;100.00;96794.56;10375733;28;1981;-75
2021/12/19 09:35:19;;;;;;;;;;;0.90;99.90;;;0.15;100.00;96803.13;10370942;28;1882;-75
2021/12/19 09:40:31;;;;;;;;;;;1.00;99.90;;;0.09;100.00;96795.13;10374811;28;2053;-76
2021/12/19 09:45:34;;;;;;;;;;;1.10;99.90;;;0.19;100.00;96793.84;10386738;28;2064;-74
2021/12/19 09:50:37;;;;;;;;;;;1.10;99.90;;;0.07;100.00;96789.19;10372457;28;1906;-74
2021/12/19 09:55:40;;;;;;;;;;;1.00;99.90;;;-0.08;100.00;96768.84;10376231;28;1818;-75
2021/12/19 10:00:44;;;;;;;;;;;1.00;99.90;;;-0.03;100.00;96761.19;10377955;28;1814;-74
2021/12/19 10:05:47;;;;;;;;;;;1.20;99.90;;;-0.30;100.00;96764.47;10380862;28;1997;-74
2021/12/19 10:10:56;;;;;;;;;;;0.90;99.90;;;-0.29;100.00;96743.16;10373098;28;1981;-74
2021/12/19 10:15:59;;;;;;;;;;;0.70;99.90;;;-0.27;100.00;96721.81;10380739;28;1835;-73
2021/12/19 10:21:02;;;;;;;;;;;0.70;99.90;;;-0.27;100.00;96711.25;10374500;28;1779;-73
2021/12/19 10:26:07;;;;;;;;;;;0.70;99.90;;;0.11;100.00;96692.63;10383101;28;1874;-74
2021/12/19 10:31:10;;;;;;;;;;;0.90;99.90;;;0.63;100.00;96686.28;10376627;28;1911;-74
2021/12/19 10:36:13;;;;;;;;;;;1.20;99.90;;;0.68;100.00;96668.00;10384661;28;1774;-73
2021/12/19 10:41:17;;;;;;;;;;;1.50;99.90;;;0.58;100.00;96668.34;10376732;28;2221;-75
2021/12/19 10:46:21;;;;;;;;;;;1.60;99.90;;;0.86;100.00;96643.75;10390649;28;2011;-75
2021/12/19 10:51:25;;;;;;;;;;;1.60;99.90;;;0.63;99.34;96646.59;10378788;28;1910;-74
2021/12/19 10:56:29;;;;;;;;;;;1.60;99.90;;;0.49;100.00;96633.22;10377752;28;1850;-73
2021/12/19 11:01:32;;;;;;;;;;;1.60;99.90;;;0.46;100.00;96623.03;10377670;28;1854;-74
2021/12/19 11:06:36;;;;;;;;;;;1.70;99.90;;;0.38;100.00;96609.94;10376371;28;1869;-75
2021/12/19 11:11:41;;;;;;;;;;;1.50;99.90;;;0.39;99.89;96601.00;10388156;28;1967;-74
2021/12/19 11:16:44;;;;;;;;;;;1.50;99.90;;;0.32;99.88;96602.78;10378691;28;1736;-75
2021/12/19 11:21:48;;;;;;;;;;;1.40;99.90;;;0.36;99.17;96593.44;10392470;28;1847;-74
2021/12/19 11:26:51;;;;;;;;;;;1.50;99.90;;;0.45;100.00;96584.38;10386582;28;1768;-75
2021/12/19 11:31:57;;;;;;;;;;;1.50;99.90;;;0.65;99.64;96573.13;10384508;28;1918;-72
2021/12/19 11:37:01;;;;;;;;;;;1.60;99.90;;;0.77;99.76;96566.31;10389416;28;1978;-74
2021/12/19 11:42:04;;;;;;;;;;;1.70;99.90;;;0.85;99.47;96544.16;10379925;28;1861;-75
2021/12/19 11:47:14;;;;;;;;;;;1.80;99.90;;;0.78;99.79;96530.91;10378300;28;1863;-75
2021/12/19 11:52:17;;;;;;;;;;;1.80;99.90;;;0.68;100.00;96519.81;10382176;28;1957;-73
2021/12/19 11:57:20;;;;;;;;;;;1.80;99.90;;;0.68;100.00;96510.06;10385966;28;1879;-73
2021/12/19 12:02:24;;;;;;;;;;;1.80;99.90;;;0.99;100.00;96504.34;10377264;28;1873;-76
2021/12/19 12:07:27;;;;;;;;;;;2.10;99.90;;;1.00;98.72;96503.31;10416862;28;1883;-74
2021/12/19 12:12:35;;;;;;;;;;;2.10;99.90;;;0.88;99.94;96494.28;10410473;28;1894;-76
2021/12/19 12:17:50;;;;;;;;;;;2.10;99.90;;;1.02;100.00;96463.44;10416318;28;1829;-75
2021/12/19 12:22:54;;;;;;;;;;;2.10;99.90;;;1.10;99.86;96457.16;10396617;28;1807;-74
2021/12/19 12:28:03;;;;;;;;;;;2.20;99.90;;;1.16;99.97;96440.47;10417048;28;1803;-75
2021/12/19 12:33:06;;;;;;;;;;;2.20;99.90;;;1.34;100.00;96424.84;10424611;28;1957;-75
2021/12/19 12:38:09;;;;;;;;;;;2.30;99.90;;;1.37;98.42;96408.53;10407720;28;1851;-76
2021/12/19 12:43:13;;;;;;;;;;;2.40;99.90;;;1.42;98.21;96406.13;10404692;28;1891;-74
2021/12/19 12:48:16;;;;;;;;;;;2.50;99.90;;;1.58;97.61;96411.03;10396519;28;1867;-73
2021/12/19 12:53:20;;;;;;;;;;;2.60;99.90;;;1.54;97.23;96404.50;10400040;28;1975;-76
2021/12/19 12:58:23;;;;;;;;;;;2.70;99.90;;;1.43;97.54;96409.59;10377396;28;1882;-74
2021/12/19 13:03:30;;;;;;;;;;;2.60;99.90;;;1.46;98.55;96402.03;10396306;28;1900;-75
2021/12/19 13:08:34;;;;;;;;;;;2.60;99.90;;;1.40;99.38;96400.22;10381599;28;1784;-73
2021/12/19 13:13:38;;;;;;;;;;;2.50;99.90;;;1.26;100.00;96387.94;10366898;28;1984;-74
2021/12/19 13:18:41;;;;;;;;;;;2.40;99.90;;;1.14;100.00;96374.44;10377036;28;1945;-75
2021/12/19 13:23:45;;;;;;;;;;;2.30;99.90;;;1.10;100.00;96364.47;10383143;28;1842;-74
2021/12/19 13:28:48;;;;;;;;;;;2.30;99.90;;;1.04;100.00;96366.91;10386042;28;1958;-75
2021/12/19 13:33:51;;;;;;;;;;;2.20;99.90;;;1.00;100.00;96360.38;10370207;28;1981;-74
2021/12/19 13:38:55;;;;;;;;;;;2.20;99.90;;;1.02;100.00;96362.84;10384585;28;1945;-76
2021/12/19 13:43:59;;;;;;;;;;;2.20;99.90;;;0.88;100.00;96364.59;10370883;28;2211;-74
2021/12/19 13:49:02;;;;;;;;;;;2.10;99.90;;;0.94;100.00;96353.22;10402438;23;2047;-72
2021/12/19 13:54:06;;;;;;;;;;;2.10;99.90;;;0.94;100.00;96355.03;10426400;28;1983;-72
2021/12/19 13:59:09;;;;;;;;;;;2.10;99.90;;;0.99;100.00;96347.34;10430958;28;1845;-72
2021/12/19 14:04:12;;;;;;;;;;;2.20;99.90;;;0.94;100.00;96344.47;10366464;28;1918;-73
2021/12/19 14:09:16;;;;;;;;;;;2.10;99.90;;;0.79;100.00;96334.03;10364319;28;1843;-72
2021/12/19 14:14:26;;;;;;;;;;;2.00;99.90;;;0.76;100.00;96334.41;10362502;28;1907;-73
2021/12/19 14:19:30;;;;;;;;;;;2.00;99.90;;;0.71;100.00;96331.56;10377220;28;1799;-73
2021/12/19 14:24:35;;;;;;;;;;;1.90;99.90;;;0.66;100.00;96331.34;10367420;28;1830;-71
2021/12/19 14:29:38;;;;;;;;;;;1.90;99.90;;;0.60;100.00;96329.50;10370895;28;1835;-73
2021/12/19 14:34:41;;;;;;;;;;;1.90;99.90;;;0.42;100.00;96324.72;10359282;28;2049;-72
2021/12/19 14:39:44;;;;;;;;;;;1.90;99.90;;;0.43;100.00;96321.88;10360542;28;1914;-71
2021/12/19 14:44:47;;;;;;;;;;;1.70;99.90;;;0.31;100.00;96310.22;10356423;28;2077;-73
2021/12/19 14:49:50;;;;;;;;;;;1.60;99.90;;;0.29;100.00;96311.44;10369153;28;1807;-73
2021/12/19 14:54:54;;;;;;;;;;;1.60;99.90;;;0.20;100.00;96305.50;10378185;28;1998;-73
2021/12/19 14:59:57;;;;;;;;;;;1.50;99.90;;;0.04;100.00;96293.41;10359333;28;2149;-74
2021/12/19 15:05:00;;;;;;;;;;;1.40;99.90;;;0.02;100.00;96291.97;10359327;28;1987;-73
2021/12/19 15:10:03;;;;;;;;;;;1.40;99.90;;;-0.06;100.00;96301.69;10368016;28;2163;-73
2021/12/19 15:15:07;;;;;;;;;;;1.20;99.90;;;-0.23;100.00;96300.38;10354773;28;2058;-73
2021/12/19 15:20:09;;;;;;;;;;;1.10;99.90;;;-0.27;100.00;96288.53;10361619;28;2478;-73
2021/12/19 15:25:12;;;;;;;;;;;1.00;99.90;;;-0.34;100.00;96285.03;10374389;28;2435;-76
2021/12/19 15:30:16;;;;;;;;;;;0.80;99.90;;;-0.29;100.00;96290.56;10356206;28;1841;-72
2021/12/19 15:35:19;;;;;;;;;;;0.80;99.90;;;-0.28;100.00;96293.00;10387865;28;1910;-70
2021/12/19 15:40:22;;;;;;;;;;;0.80;99.90;;;-0.22;100.00;96280.03;10378136;28;1862;-72
2021/12/19 15:45:25;;;;;;;;;;;0.80;99.90;;;-0.11;100.00;96285.59;10358049;28;1865;-73
2021/12/19 15:50:28;;;;;;;;;;;0.90;99.90;;;-0.06;100.00;96283.19;10351803;28;2000;-70
2021/12/19 15:55:30;;;;;;;;;;;0.90;99.90;;;0.03;100.00;96304.19;10346217;28;1926;-72
2021/12/19 16:00:33;;;;;;;;;;;0.90;99.90;;;-0.07;100.00;96299.22;10366515;28;1961;-72
2021/12/19 16:05:36;;;;;;;;;;;1.00;99.90;;;0.03;100.00;96304.19;10376467;28;1968;-73
2021/12/19 16:10:39;;;;;;;;;;;1.00;99.90;;;0.07;100.00;96326.59;10354880;28;2169;-73
2021/12/19 16:15:47;;;;;;;;;;;1.00;99.90;;;0.01;100.00;96322.06;10361207;28;1883;-72
2021/12/19 16:20:50;;;;;;;;;;;1.00;99.90;;;0.01;100.00;96327.34;10355822;28;1450;-73
2021/12/19 16:25:53;;;;;;;;;;;1.00;99.90;;;0.05;100.00;96325.94;10362783;28;2239;-72
2021/12/19 16:30:56;;;;;;;;;;;1.00;99.90;;;0.02;100.00;96328.97;10371681;28;1970;-73
2021/12/19 16:35:59;;;;;;;;;;;1.00;99.90;;;0.07;100.00;96321.28;10349831;28;1943;-73
2021/12/19 16:41:04;;;;;;;;;;;1.00;99.90;;;0.01;100.00;96322.06;10354600;28;1527;-72
2021/12/19 16:46:06;;;;;;;;;;;1.10;99.90;;;-0.10;100.00;96323.41;10355780;28;1930;-73
2021/12/19 16:51:09;;;;;;;;;;;1.00;99.90;;;-0.19;100.00;96327.19;10363138;28;1971;-72
2021/12/19 16:56:13;;;;;;;;;;;0.80;99.90;;;-0.35;100.00;96336.25;10372891;28;2038;-72
2021/12/19 17:01:16;;;;;;;;;;;0.60;99.90;;;-0.36;100.00;96332.78;10373228;28;1729;-73
2021/12/19 17:06:19;;;;;;;;;;;0.60;99.90;;;-0.20;100.00;96349.34;10370052;28;1907;-72
2021/12/19 17:11:24;;;;;;;;;;;0.80;99.90;;;-0.37;100.00;96340.91;10357965;28;1975;-73
2021/12/19 17:16:27;;;;;;;;;;;0.70;99.90;;;-0.40;100.00;96346.56;10360340;28;1923;-73
2021/12/19 17:21:30;;;;;;;;;;;0.70;99.90;;;-0.63;100.00;96355.53;10375358;28;1310;-74
2021/12/19 17:26:33;;;;;;;;;;;0.60;99.90;;;-0.72;100.00;96359.28;10373191;28;1638;-72
2021/12/19 17:31:35;;;;;;;;;;;0.30;99.90;;;-0.89;100.00;96355.22;10368166;28;1914;-73
2021/12/19 17:36:44;;;;;;;;;;;0.20;99.90;;;-0.73;100.00;96335.72;10388017;28;1800;-72
2021/12/19 17:41:47;;;;;;;;;;;0.30;99.90;;;-0.69;100.00;96329.88;10394692;28;1522;-71
2021/12/19 17:46:50;;;;;;;;;;;0.30;99.90;;;-0.75;100.00;96343.81;10401353;28;1705;-73
2021/12/19 17:51:53;;;;;;;;;;;0.20;99.90;;;-0.69;100.00;96337.78;10386111;28;1989;-72
2021/12/19 17:56:58;;;;;;;;;;;0.30;99.90;;;-0.80;100.00;96350.66;10361249;28;1512;-74
2021/12/19 18:02:01;;;;;;;;;;;0.20;99.90;;;-0.80;100.00;96351.47;10371334;28;1626;-73
2021/12/19 18:07:05;;;;;;;;;;;0.20;99.90;;;-0.67;100.00;96340.22;10373729;28;1535;-72
2021/12/19 18:12:08;;;;;;;;;;;0.20;99.90;;;-0.79;100.00;96332.00;10367345;28;1914;-72
2021/12/19 18:17:11;;;;;;;;;;;0.20;99.90;;;-0.83;100.00;96338.66;10358790;28;1398;-71
2021/12/19 18:22:14;;;;;;;;;;;0.20;99.90;;;-0.75;100.00;96341.19;10367811;28;1549;-72
2021/12/19 18:27:17;;;;;;;;;;;0.20;99.90;;;-0.71;100.00;96347.69;10358054;28;1558;-71
2021/12/19 18:32:20;;;;;;;;;;;0.10;99.90;;;-0.75;100.00;96359.66;10364294;28;1910;-73
2021/12/19 18:37:25;;;;;;;;;;;0.20;99.90;;;-0.76;100.00;96357.19;10364968;28;1489;-73
2021/12/19 18:42:37;;;;;;;;;;;0.20;99.90;;;-0.59;100.00;96348.84;10371021;28;1863;-73
2021/12/19 18:47:51;;;;;;;;;;;0.30;99.90;;;-0.51;100.00;96342.59;10382349;28;1377;-73
2021/12/19 18:53:03;;;;;;;;;;;0.40;99.90;;;-0.52;100.00;96342.78;10366282;28;1981;-73
2021/12/19 18:58:12;;;;;;;;;;;0.40;99.90;;;-0.69;100.00;96364.19;10356394;28;1456;-73
2021/12/19 19:03:20;;;;;;;;;;;0.30;99.90;;;-0.53;100.00;96357.00;10361866;28;1235;-72
2021/12/19 19:08:24;;;;;;;;;;;0.00;99.90;;;-0.44;100.00;96355.88;10360581;28;1573;-73
2021/12/19 19:13:29;;;;;;;;;;;0.40;99.90;;;-0.42;100.00;96380.28;10357819;28;1971;-72
2021/12/19 19:18:32;;;;;;;;;;;0.40;99.90;;;-0.44;100.00;96387.59;10370344;28;1425;-73
2021/12/19 19:23:35;;;;;;;;;;;0.40;99.90;;;-0.57;100.00;96398.84;10374382;28;1357;-73
2021/12/19 19:28:40;;;;;;;;;;;0.60;99.90;;;-0.60;100.00;96397.38;10365526;28;1390;-72
2021/12/19 19:33:43;;;;;;;;;;;0.40;99.90;;;-0.66;100.00;96387.56;10390828;28;1963;-70
2021/12/19 19:38:54;;;;;;;;;;;0.40;99.90;;;-0.65;100.00;96394.47;10377259;28;1513;-72
2021/12/19 19:49:33;;;;;;;;;;;0.30;99.90;;;-0.32;100.00;96401.88;10270888;28;1669;-73
2021/12/19 19:54:36;;;;;;;;;;;;;;;-0.39;100.00;96412.41;10379789;22;2003;-77
2021/12/19 19:59:40;;;;;;;;;;;;;;;-0.37;100.00;96415.69;10400755;28;1914;-76
2021/12/19 20:04:43;;;;;;;;;;;;;;;-0.25;100.00;96412.50;10397210;28;1875;-76
2021/12/19 20:09:47;;;;;;;;;;;;;;;-0.14;100.00;96423.38;10370490;28;1903;-75
2021/12/19 20:14:50;;;;;;;;;;;;;;;-0.07;100.00;96407.59;10371162;28;1910;-75
2021/12/19 20:19:54;;;;;;;;;;;;;;;-0.07;100.00;96405.75;10375002;28;1945;-76
2021/12/19 20:24:58;;;;;;;;;;;;;;;0.02;100.00;96389.78;10370961;28;1881;-75
2021/12/19 20:30:01;;;;;;;;;;;;;;;0.00;100.00;96387.34;10368911;28;1997;-75
2021/12/19 20:35:05;;;;;;;;;;;;;;;0.03;100.00;96380.84;10369191;28;1950;-76
2021/12/19 20:40:09;;;;;;;;;;;;;;;0.06;100.00;96377.78;10387506;28;1840;-75
2021/12/19 20:45:12;;;;;;;;;;;;;;;0.11;100.00;96373.56;10385666;28;1856;-76
2021/12/19 20:50:15;;;;;;;;;;;;;;;0.14;100.00;96372.38;10368885;28;1984;-76
2021/12/19 20:55:19;;;;;;;;;;;;;;;0.19;100.00;96367.31;10370050;28;1962;-75
2021/12/19 21:00:22;;;;;;;;;;;;;;;0.28;100.00;96379.38;10378385;28;1403;-75
2021/12/19 21:05:26;;;;;;;;;;;;;;;0.27;100.00;96367.16;10373581;28;1494;-76
2021/12/19 21:10:30;;;;;;;;;;;;;;;0.31;100.00;96376.31;10371404;28;1390;-78
2021/12/19 21:20:56;;;;;;;;;;;;;;;0.37;100.00;96359.69;10350219;28;1434;-75
2021/12/19 21:26:00;;;;;;;;;;;;;;;0.38;100.00;96361.34;10397241;28;1236;-75
2021/12/19 21:31:03;;;;;;;;;;;;;;;0.42;100.00;96362.56;10387136;28;1784;-75
2021/12/19 21:41:28;;;;;;;;;;;;;;;0.30;100.00;96358.03;10378565;28;1892;-74
2021/12/19 21:46:32;;;;;;;;;;;;;;;0.39;100.00;96362.16;10410548;28;2016;-75
2021/12/19 21:51:35;;;;;;;;;;;;;;;0.40;100.00;96367.25;10394905;28;1896;-75
2021/12/19 21:56:39;;;;;;;;;;;;;;;0.44;100.00;96360.53;10384735;28;2296;-76
2021/12/19 22:01:42;;;;;;;;;;;;;;;0.47;100.00;96368.09;10381527;28;1898;-75
2021/12/19 22:06:46;;;;;;;;;;;;;;;0.39;100.00;96367.44;10381593;28;1975;-76
2021/12/19 22:12:03;;;;;;;;;;;;;;;0.46;100.00;96363.81;10377679;28;1910;-76
2021/12/19 22:17:07;;;;;;;;;;;;;;;0.51;100.00;96361.41;10377601;28;2233;-74
2021/12/19 22:22:11;;;;;;;;;;;;;;;0.49;100.00;96352.00;10382760;28;1863;-75
2021/12/19 22:27:14;;;;;;;;;;;;;;;0.42;100.00;96349.34;10379441;28;1990;-77
2021/12/19 22:32:18;;;;;;;;;;;;;;;0.48;100.00;96332.69;10372662;28;1906;-76
2021/12/19 22:37:22;;;;;;;;;;;;;;;0.44;100.00;96334.09;10374614;28;2038;-75
2021/12/19 22:42:25;;;;;;;;;;;;;;;0.42;100.00;96330.81;10379964;28;1865;-76
2021/12/19 22:47:29;;;;;;;;;;;;;;;0.52;100.00;96333.94;10366469;28;2038;-75
2021/12/19 22:52:33;;;;;;;;;;;;;;;0.54;100.00;96328.44;10364984;28;1973;-76
2021/12/19 22:57:37;;;;;;;;;;;;;;;0.50;100.00;96320.06;10365044;28;1959;-75
2021/12/19 23:02:41;;;;;;;;;;;;;;;0.50;100.00;96322.72;10365468;28;1868;-76
2021/12/19 23:07:45;;;;;;;;;;;;;;;0.52;100.00;96310.13;10367906;28;1934;-75
2021/12/19 23:12:51;;;;;;;;;;;;;;;0.59;100.00;96294.28;10362347;28;1910;-75
2021/12/19 23:17:57;;;;;;;;;;;;;;;0.50;100.00;96296.25;10367045;28;1876;-76
2021/12/19 23:23:00;;;;;;;;;;;;;;;0.48;100.00;96284.25;10363465;28;1898;-76
2021/12/19 23:28:04;;;;;;;;;;;;;;;0.49;100.00;96275.31;10378397;28;1893;-75
2021/12/19 23:33:33;;;;;;;;;;;;;;;0.46;100.00;96284.47;10374629;28;1908;-76
2021/12/19 23:38:47;;;;;;;;;;;;;;;0.48;100.00;96271.84;10375226;28;1903;-76
2021/12/19 23:49:13;;;;;;;;;;;;;;;0.57;100.00;96269.84;10370205;28;1993;-75
2021/12/19 23:54:19;;;;;;;;;;;;;;;0.58;100.00;96262.75;10370745;28;1948;-75
2021/12/19 23:59:24;;;;;;;;;;;;;;;0.53;100.00;96261.50;10363699;28;1922;-74
